createdAt,value
2018-11-12T00:00:15.868Z,15.10
2018-11-12T00:02:48.459Z,15.10
2018-11-12T00:05:17.354Z,15.10
2018-11-12T00:07:46.308Z,15.10
2018-11-12T00:10:14.703Z,15.10
2018-11-12T00:12:43.082Z,15.10
2018-11-12T00:15:13.947Z,15.00
2018-11-12T00:17:42.410Z,15.00
2018-11-12T00:20:12.337Z,15.00
2018-11-12T00:22:41.996Z,15.00
2018-11-12T00:25:11.078Z,14.90
2018-11-12T00:27:39.893Z,14.90
2018-11-12T00:30:10.411Z,14.80
2018-11-12T00:32:38.840Z,14.90
2018-11-12T00:35:08.162Z,14.90
2018-11-12T00:37:36.532Z,14.90
2018-11-12T00:40:05.203Z,14.90
2018-11-12T00:42:33.488Z,14.90
2018-11-12T00:45:02.781Z,14.90
2018-11-12T00:47:31.161Z,14.90
2018-11-12T00:49:59.655Z,14.90
2018-11-12T00:52:27.915Z,14.90
2018-11-12T00:54:57.621Z,14.90
2018-11-12T00:57:26.059Z,15.00
2018-11-12T00:59:54.601Z,15.00
2018-11-12T01:02:23.141Z,14.90
2018-11-12T01:04:52.007Z,14.90
2018-11-12T01:07:21.056Z,14.90
2018-11-12T01:09:49.383Z,14.90
2018-11-12T01:12:17.867Z,14.90
2018-11-12T01:14:46.141Z,14.90
2018-11-12T01:17:14.399Z,14.90
2018-11-12T01:19:44.059Z,14.90
2018-11-12T01:22:12.504Z,14.90
2018-11-12T01:24:40.892Z,14.90
2018-11-12T01:27:09.208Z,14.90
2018-11-12T01:29:37.538Z,14.90
2018-11-12T01:32:05.971Z,15.00
2018-11-12T01:34:34.304Z,14.90
2018-11-12T01:37:02.732Z,14.90
2018-11-12T01:39:31.119Z,15.00
2018-11-12T01:42:00.070Z,15.00
2018-11-12T01:44:28.530Z,14.90
2018-11-12T01:46:57.004Z,15.00
2018-11-12T01:49:25.617Z,14.90
2018-11-12T01:51:54.013Z,14.90
2018-11-12T01:54:22.513Z,14.90
2018-11-12T01:56:51.226Z,15.00
2018-11-12T01:59:19.552Z,15.00
2018-11-12T02:01:47.849Z,15.10
2018-11-12T02:04:16.579Z,15.10
2018-11-12T02:06:44.865Z,15.10
2018-11-12T02:09:13.623Z,15.10
2018-11-12T02:11:42.232Z,15.10
2018-11-12T02:14:10.531Z,15.10
2018-11-12T02:16:38.906Z,15.10
2018-11-12T02:19:07.220Z,15.10
2018-11-12T02:21:35.539Z,15.10
2018-11-12T02:24:03.898Z,15.10
2018-11-12T02:26:32.301Z,15.10
2018-11-12T02:29:00.619Z,15.10
2018-11-12T02:31:29.016Z,15.10
2018-11-12T02:33:57.398Z,15.00
2018-11-12T02:36:25.983Z,15.00
2018-11-12T02:38:54.336Z,15.00
2018-11-12T02:41:23.038Z,15.00
2018-11-12T02:43:51.543Z,14.90
2018-11-12T02:46:19.986Z,14.90
2018-11-12T02:48:48.650Z,14.90
2018-11-12T02:51:16.968Z,14.90
2018-11-12T02:53:45.332Z,14.90
2018-11-12T02:56:13.835Z,14.90
2018-11-12T02:58:42.111Z,14.80
2018-11-12T03:01:10.449Z,14.70
2018-11-12T03:03:39.180Z,14.70
2018-11-12T03:06:07.743Z,14.60
2018-11-12T03:08:36.116Z,14.60
2018-11-12T03:11:04.514Z,14.60
2018-11-12T03:13:32.792Z,14.60
2018-11-12T03:16:01.608Z,14.60
2018-11-12T03:18:29.935Z,14.50
2018-11-12T03:20:58.432Z,14.60
2018-11-12T03:23:26.908Z,14.50
2018-11-12T03:25:55.477Z,14.60
2018-11-12T03:28:23.846Z,14.60
2018-11-12T03:30:52.248Z,14.60
2018-11-12T03:33:20.784Z,14.50
2018-11-12T03:35:49.156Z,14.50
2018-11-12T03:38:17.717Z,14.60
2018-11-12T03:40:46.117Z,14.50
2018-11-12T03:43:14.430Z,14.60
2018-11-12T03:45:42.906Z,14.50
2018-11-12T03:48:11.173Z,14.50
2018-11-12T03:50:39.488Z,14.60
2018-11-12T03:53:07.786Z,14.60
2018-11-12T03:55:36.098Z,14.60
2018-11-12T03:58:04.871Z,14.60
2018-11-12T04:00:33.592Z,14.60
2018-11-12T04:03:01.847Z,14.60
2018-11-12T04:05:30.173Z,14.50
2018-11-12T04:08:02.672Z,14.50
2018-11-12T04:10:31.279Z,14.50
2018-11-12T04:12:59.676Z,14.50
2018-11-12T04:15:28.120Z,14.40
2018-11-12T04:17:56.544Z,14.40
2018-11-12T04:20:25.532Z,14.40
2018-11-12T04:23:01.561Z,14.40
2018-11-12T04:25:29.999Z,14.40
2018-11-12T04:27:58.407Z,14.40
2018-11-12T04:30:26.821Z,14.40
2018-11-12T04:32:55.086Z,14.40
2018-11-12T04:35:23.423Z,14.40
2018-11-12T04:37:51.699Z,14.40
2018-11-12T04:40:20.119Z,14.30
2018-11-12T04:42:48.885Z,14.30
2018-11-12T04:45:18.429Z,14.30
2018-11-12T04:47:55.065Z,14.30
2018-11-12T04:50:36.293Z,14.30
2018-11-12T04:53:05.064Z,14.30
2018-11-12T04:55:40.637Z,14.30
2018-11-12T04:58:09.258Z,14.30
2018-11-12T05:00:44.465Z,14.40
2018-11-12T05:03:13.172Z,14.40
2018-11-12T05:05:46.851Z,14.30
2018-11-12T05:08:15.180Z,14.40
2018-11-12T05:10:44.452Z,14.30
2018-11-12T05:13:19.357Z,14.30
2018-11-12T05:15:47.771Z,14.30
2018-11-12T05:18:16.203Z,14.30
2018-11-12T05:20:44.566Z,14.30
2018-11-12T05:23:12.911Z,14.30
2018-11-12T05:25:43.399Z,14.30
2018-11-12T05:28:12.232Z,14.30
2018-11-12T05:30:40.696Z,14.30
2018-11-12T05:33:08.943Z,14.30
2018-11-12T05:35:37.478Z,14.30
2018-11-12T05:38:06.234Z,14.30
2018-11-12T05:40:34.615Z,14.30
2018-11-12T05:43:03.175Z,14.30
2018-11-12T05:45:31.783Z,14.30
2018-11-12T05:48:00.107Z,14.40
2018-11-12T05:50:30.406Z,14.40
2018-11-12T05:53:00.118Z,14.40
2018-11-12T05:55:29.607Z,14.30
2018-11-12T05:57:58.271Z,14.30
2018-11-12T06:00:32.061Z,14.30
2018-11-12T06:03:00.974Z,14.30
2018-11-12T06:05:29.559Z,14.30
2018-11-12T06:07:58.000Z,14.30
2018-11-12T06:10:27.907Z,14.30
2018-11-12T06:12:56.326Z,14.30
2018-11-12T06:15:24.748Z,14.30
2018-11-12T06:17:55.545Z,15.70
2018-11-12T06:20:25.276Z,14.30
2018-11-12T06:22:53.658Z,14.30
2018-11-12T06:25:27.316Z,14.30
2018-11-12T06:27:56.089Z,14.40
2018-11-12T06:30:26.079Z,14.40
2018-11-12T06:32:54.393Z,14.40
2018-11-12T06:35:22.925Z,14.40
2018-11-12T06:38:01.336Z,14.40
2018-11-12T06:40:33.921Z,14.40
2018-11-12T06:43:03.883Z,14.40
2018-11-12T06:45:32.174Z,14.40
2018-11-12T06:48:00.791Z,14.40
2018-11-12T06:50:30.463Z,14.40
2018-11-12T06:52:59.352Z,14.50
2018-11-12T06:55:27.722Z,14.50
2018-11-12T06:57:56.247Z,14.50
2018-11-12T07:00:29.190Z,14.50
2018-11-12T07:02:57.670Z,14.50
2018-11-12T07:05:26.234Z,14.60
2018-11-12T07:07:54.743Z,14.60
2018-11-12T07:10:24.336Z,14.60
2018-11-12T07:12:53.722Z,14.70
2018-11-12T07:15:23.401Z,14.70
2018-11-12T07:17:51.702Z,14.70
2018-11-12T07:20:21.404Z,14.80
2018-11-12T07:22:50.158Z,14.80
2018-11-12T07:25:20.468Z,14.80
2018-11-12T07:27:48.687Z,14.80
2018-11-12T07:30:20.143Z,14.90
2018-11-12T07:32:49.316Z,14.90
2018-11-12T07:35:18.220Z,14.90
2018-11-12T07:37:47.920Z,14.90
2018-11-12T07:40:16.811Z,14.90
2018-11-12T07:42:45.153Z,14.90
2018-11-12T07:45:16.573Z,14.90
2018-11-12T07:47:45.771Z,14.90
2018-11-12T07:50:15.342Z,14.90
2018-11-12T07:52:43.924Z,15.00
2018-11-12T07:55:14.784Z,15.10
2018-11-12T07:57:44.024Z,15.10
2018-11-12T08:00:16.572Z,15.20
2018-11-12T08:02:45.853Z,15.20
2018-11-12T08:05:15.051Z,15.20
2018-11-12T08:07:43.904Z,15.20
2018-11-12T08:10:14.480Z,15.20
2018-11-12T08:12:43.454Z,15.30
2018-11-12T08:15:13.109Z,15.30
2018-11-12T08:17:41.565Z,15.30
2018-11-12T08:20:11.965Z,15.30
2018-11-12T08:22:40.388Z,15.30
2018-11-12T08:25:09.727Z,15.40
2018-11-12T08:27:38.225Z,15.40
2018-11-12T08:30:10.074Z,15.50
2018-11-12T08:32:38.480Z,15.50
2018-11-12T08:35:06.815Z,15.50
2018-11-12T08:37:35.081Z,15.60
2018-11-12T08:40:03.538Z,15.60
2018-11-12T08:42:32.811Z,15.50
2018-11-12T08:45:01.111Z,15.50
2018-11-12T08:47:29.584Z,15.40
2018-11-12T08:49:58.218Z,15.40
2018-11-12T08:52:26.482Z,15.40
2018-11-12T08:54:54.804Z,15.50
2018-11-12T08:57:23.174Z,15.60
2018-11-12T08:59:51.471Z,15.70
2018-11-12T09:02:19.842Z,15.80
2018-11-12T09:04:48.191Z,15.80
2018-11-12T09:07:16.754Z,15.90
2018-11-12T09:09:44.843Z,16.00
2018-11-12T09:12:13.111Z,16.00
2018-11-12T09:14:41.467Z,16.00
2018-11-12T09:17:09.895Z,16.10
2018-11-12T09:19:38.183Z,16.20
2018-11-12T09:22:06.468Z,16.30
2018-11-12T09:24:34.772Z,16.40
2018-11-12T09:27:03.111Z,16.40
2018-11-12T09:29:31.482Z,16.40
2018-11-12T09:31:59.703Z,16.50
2018-11-12T09:34:27.979Z,16.50
2018-11-12T09:36:56.279Z,16.70
2018-11-12T09:39:24.529Z,16.80
2018-11-12T09:41:52.789Z,17.00
2018-11-12T09:44:21.187Z,17.10
2018-11-12T09:46:49.545Z,17.20
2018-11-12T09:49:17.940Z,17.20
2018-11-12T09:51:46.094Z,17.20
2018-11-12T09:54:14.465Z,17.30
2018-11-12T09:56:42.811Z,17.50
2018-11-12T09:59:11.252Z,17.70
2018-11-12T10:01:40.144Z,17.90
2018-11-12T10:04:08.369Z,18.10
2018-11-12T10:06:37.340Z,18.30
2018-11-12T10:09:10.182Z,18.50
2018-11-12T10:11:38.782Z,18.70
2018-11-12T10:14:05.657Z,18.90
2018-11-12T10:16:35.821Z,19.00
2018-11-12T10:19:01.165Z,19.20
2018-11-12T10:21:29.494Z,19.40
2018-11-12T10:23:57.827Z,19.60
2018-11-12T10:26:26.212Z,19.70
2018-11-12T10:28:54.579Z,19.80
2018-11-12T10:31:29.390Z,19.80
2018-11-12T10:33:57.656Z,19.70
2018-11-12T10:36:25.920Z,19.70
2018-11-12T10:38:54.186Z,19.80
2018-11-12T10:41:22.464Z,19.80
2018-11-12T10:43:50.818Z,20.00
2018-11-12T10:46:19.116Z,20.00
2018-11-12T10:48:47.503Z,20.00
2018-11-12T10:51:17.972Z,20.00
2018-11-12T10:53:50.207Z,20.00
2018-11-12T10:56:15.426Z,20.00
2018-11-12T10:58:44.178Z,20.10
2018-11-12T11:01:18.233Z,20.20
2018-11-12T11:03:53.539Z,20.30
2018-11-12T11:06:22.426Z,20.30
2018-11-12T11:08:52.288Z,20.30
2018-11-12T11:11:21.019Z,20.30
2018-11-12T11:13:49.563Z,20.30
2018-11-12T11:16:18.031Z,20.30
2018-11-12T11:18:48.652Z,20.30
2018-11-12T11:21:18.096Z,20.30
2018-11-12T11:23:46.660Z,20.30
2018-11-12T11:26:15.412Z,20.30
2018-11-12T11:28:44.222Z,20.50
2018-11-12T11:31:13.320Z,20.70
2018-11-12T11:33:42.895Z,20.90
2018-11-12T11:36:11.895Z,21.10
2018-11-12T11:38:42.084Z,21.20
2018-11-12T11:41:11.459Z,21.30
2018-11-12T11:43:40.415Z,21.50
2018-11-12T11:46:09.388Z,21.50
2018-11-12T11:48:38.433Z,21.40
2018-11-12T11:51:11.593Z,21.20
2018-11-12T11:53:39.992Z,21.20
2018-11-12T11:56:08.623Z,21.30
2018-11-12T11:58:38.221Z,21.40
2018-11-12T12:01:07.937Z,21.40
2018-11-12T12:03:36.753Z,21.50
2018-11-12T12:06:06.462Z,21.50
2018-11-12T12:08:35.918Z,21.40
2018-11-12T12:11:04.819Z,21.50
2018-11-12T12:13:33.663Z,21.60
2018-11-12T12:16:02.323Z,21.60
2018-11-12T12:18:31.427Z,21.60
2018-11-12T12:21:00.730Z,21.60
2018-11-12T12:23:30.038Z,21.70
2018-11-12T12:25:59.098Z,21.80
2018-11-12T12:28:31.323Z,21.80
2018-11-12T12:31:01.940Z,21.80
2018-11-12T12:33:31.059Z,21.80
2018-11-12T12:36:00.144Z,21.70
2018-11-12T12:38:29.005Z,21.70
2018-11-12T12:40:58.105Z,21.70
2018-11-12T12:43:30.891Z,21.70
2018-11-12T12:46:00.176Z,21.60
2018-11-12T12:48:29.195Z,21.50
2018-11-12T12:50:58.808Z,21.40
2018-11-12T12:53:27.684Z,21.40
2018-11-12T12:55:56.582Z,21.50
2018-11-12T12:58:25.642Z,21.50
2018-11-12T13:00:54.562Z,21.50
2018-11-12T13:03:23.950Z,21.40
2018-11-12T13:05:53.097Z,21.40
2018-11-12T13:08:21.620Z,21.40
2018-11-12T13:10:49.971Z,21.30
2018-11-12T13:13:18.379Z,21.30
2018-11-12T13:15:46.818Z,21.20
2018-11-12T13:18:15.152Z,21.10
2018-11-12T13:20:43.480Z,21.10
2018-11-12T13:23:11.974Z,21.00
2018-11-12T13:25:40.373Z,20.90
2018-11-12T13:28:08.672Z,20.40
2018-11-12T13:30:37.033Z,19.80
2018-11-12T13:33:05.452Z,19.40
2018-11-12T13:35:33.746Z,19.20
2018-11-12T13:38:02.119Z,18.90
2018-11-12T13:40:30.539Z,18.70
2018-11-12T13:42:59.999Z,18.60
2018-11-12T13:45:28.870Z,18.50
2018-11-12T13:47:58.202Z,18.30
2018-11-12T13:50:27.719Z,18.20
2018-11-12T13:52:56.520Z,18.10
2018-11-12T13:55:25.131Z,18.00
2018-11-12T13:57:53.524Z,17.80
2018-11-12T14:00:23.703Z,17.70
2018-11-12T14:02:52.749Z,17.60
2018-11-12T14:05:21.745Z,17.40
2018-11-12T14:07:50.205Z,17.30
2018-11-12T14:10:19.925Z,17.20
2018-11-12T14:12:48.848Z,17.20
2018-11-12T14:15:19.746Z,17.10
2018-11-12T14:17:48.551Z,17.10
2018-11-12T14:20:17.000Z,17.20
2018-11-12T14:22:45.187Z,17.30
2018-11-12T14:25:14.705Z,17.30
2018-11-12T14:27:43.327Z,17.40
2018-11-12T14:30:13.527Z,17.40
2018-11-12T14:32:43.505Z,17.40
2018-11-12T14:35:12.440Z,17.40
2018-11-12T14:37:42.584Z,17.40
2018-11-12T14:40:11.952Z,17.40
2018-11-12T14:42:45.106Z,17.40
2018-11-12T14:45:16.093Z,17.40
2018-11-12T14:47:44.970Z,17.30
2018-11-12T14:50:13.286Z,17.20
2018-11-12T14:52:41.908Z,17.20
2018-11-12T14:55:11.863Z,17.20
2018-11-12T14:57:43.666Z,17.20
2018-11-12T15:00:18.298Z,17.20
2018-11-12T15:02:47.858Z,17.20
2018-11-12T15:05:24.267Z,17.20
2018-11-12T15:07:52.596Z,17.00
2018-11-12T15:10:21.811Z,16.90
2018-11-12T15:12:50.591Z,16.70
2018-11-12T15:15:19.905Z,16.60
2018-11-12T15:17:48.766Z,16.50
2018-11-12T15:20:18.985Z,16.50
2018-11-12T15:22:47.379Z,16.40
2018-11-12T15:25:17.220Z,16.40
2018-11-12T15:27:45.866Z,16.40
2018-11-12T15:30:16.825Z,16.30
2018-11-12T15:32:46.157Z,16.30
2018-11-12T15:35:14.891Z,16.30
2018-11-12T15:37:44.176Z,16.10
2018-11-12T15:40:13.219Z,16.10
2018-11-12T15:42:41.939Z,16.00
2018-11-12T15:45:12.920Z,16.00
2018-11-12T15:47:41.893Z,16.00
2018-11-12T15:50:15.783Z,16.00
2018-11-12T15:52:44.736Z,16.10
2018-11-12T15:55:13.038Z,16.10
2018-11-12T15:57:41.526Z,16.00
2018-11-12T16:00:12.883Z,16.00
2018-11-12T16:02:41.192Z,16.00
2018-11-12T16:05:10.290Z,16.10
2018-11-12T16:07:38.599Z,15.90
2018-11-12T16:10:09.925Z,15.90
2018-11-12T16:12:38.804Z,15.90
2018-11-12T16:15:07.769Z,16.00
2018-11-12T16:17:36.035Z,16.00
2018-11-12T16:20:06.167Z,16.10
2018-11-12T16:22:34.428Z,16.10
2018-11-12T16:25:02.703Z,16.10
2018-11-12T16:27:30.917Z,16.10
2018-11-12T16:29:59.150Z,16.20
2018-11-12T16:32:27.480Z,16.30
2018-11-12T16:34:55.684Z,16.40
2018-11-12T16:37:23.947Z,16.30
2018-11-12T16:39:52.236Z,16.40
2018-11-12T16:42:20.495Z,16.40
2018-11-12T16:44:49.675Z,16.40
2018-11-12T16:47:17.989Z,16.30
2018-11-12T16:49:46.310Z,16.30
2018-11-12T16:52:14.728Z,16.20
2018-11-12T16:54:42.995Z,16.10
2018-11-12T16:57:11.356Z,16.10
2018-11-12T16:59:39.624Z,16.10
2018-11-12T17:02:07.920Z,16.00
2018-11-12T17:04:36.168Z,15.90
2018-11-12T17:07:04.419Z,15.90
2018-11-12T17:09:32.742Z,15.90
2018-11-12T17:12:01.006Z,15.90
2018-11-12T17:14:29.253Z,16.00
2018-11-12T17:16:57.509Z,16.00
2018-11-12T17:19:25.835Z,16.00
2018-11-12T17:21:54.139Z,16.00
2018-11-12T17:24:22.412Z,15.90
2018-11-12T17:26:50.664Z,15.90
2018-11-12T17:29:18.999Z,15.90
2018-11-12T17:31:47.256Z,15.80
2018-11-12T17:34:15.590Z,15.80
2018-11-12T17:36:43.892Z,15.70
2018-11-12T17:39:12.134Z,15.80
2018-11-12T17:41:40.528Z,15.70
2018-11-12T17:44:08.815Z,15.70
2018-11-12T17:46:37.494Z,15.70
2018-11-12T17:49:05.820Z,15.60
2018-11-12T17:51:34.075Z,15.60
2018-11-12T17:54:02.308Z,15.60
2018-11-12T17:56:30.666Z,15.60
2018-11-12T17:58:59.003Z,15.60
2018-11-12T18:01:27.509Z,15.60
2018-11-12T18:03:55.755Z,15.60
2018-11-12T18:06:24.035Z,15.60
2018-11-12T18:08:52.385Z,15.60
2018-11-12T18:11:20.620Z,15.70
2018-11-12T18:13:48.944Z,15.60
2018-11-12T18:16:17.175Z,15.60
2018-11-12T18:18:45.464Z,15.70
2018-11-12T18:21:13.719Z,15.70
2018-11-12T18:23:42.092Z,15.80
2018-11-12T18:26:10.362Z,15.80
2018-11-12T18:28:38.623Z,15.90
2018-11-12T18:31:07.098Z,15.90
2018-11-12T18:33:35.191Z,15.80
2018-11-12T18:36:03.426Z,15.80
2018-11-12T18:38:31.696Z,15.80
2018-11-12T18:40:59.975Z,15.90
2018-11-12T18:43:28.233Z,15.90
2018-11-12T18:45:56.486Z,15.70
2018-11-12T18:48:24.723Z,15.80
2018-11-12T18:50:53.139Z,15.70
2018-11-12T18:53:21.453Z,15.60
2018-11-12T18:55:49.770Z,15.60
2018-11-12T18:58:18.207Z,15.60
2018-11-12T19:00:46.577Z,15.60
2018-11-12T19:03:15.030Z,15.60
2018-11-12T19:05:43.876Z,15.60
2018-11-12T19:08:12.131Z,15.70
2018-11-12T19:10:40.562Z,15.70
2018-11-12T19:13:08.904Z,15.70
2018-11-12T19:15:38.338Z,15.70
2018-11-12T19:18:09.316Z,15.70
2018-11-12T19:20:38.109Z,15.70
2018-11-12T19:23:06.692Z,15.60
2018-11-12T19:25:35.039Z,15.60
2018-11-12T19:28:03.368Z,15.60
2018-11-12T19:30:31.835Z,15.60
2018-11-12T19:33:00.160Z,15.70
2018-11-12T19:35:29.883Z,15.70
2018-11-12T19:37:59.449Z,15.70
2018-11-12T19:40:28.958Z,15.70
2018-11-12T19:42:57.786Z,15.70
2018-11-12T19:45:26.180Z,15.70
2018-11-12T19:47:54.910Z,15.70
2018-11-12T19:50:24.515Z,15.70
2018-11-12T19:52:54.406Z,15.70
2018-11-12T19:55:22.849Z,15.70
2018-11-12T19:57:51.196Z,15.70
2018-11-12T20:00:21.914Z,15.80
2018-11-12T20:02:51.340Z,15.80
2018-11-12T20:05:19.675Z,15.90
2018-11-12T20:07:48.193Z,15.90
2018-11-12T20:10:18.031Z,15.90
2018-11-12T20:12:46.443Z,15.90
2018-11-12T20:15:16.929Z,15.90
2018-11-12T20:17:46.267Z,15.90
2018-11-12T20:20:16.980Z,15.90
2018-11-12T20:22:45.795Z,15.90
2018-11-12T20:25:15.477Z,15.80
2018-11-12T20:27:44.221Z,15.80
2018-11-12T20:30:16.322Z,15.80
2018-11-12T20:32:45.082Z,15.90
2018-11-12T20:35:13.399Z,15.80
2018-11-12T20:37:41.816Z,15.80
2018-11-12T20:40:11.467Z,15.80
2018-11-12T20:42:41.598Z,15.70
2018-11-12T20:45:11.417Z,15.80
2018-11-12T20:47:40.497Z,15.80
2018-11-12T20:50:10.803Z,15.80
2018-11-12T20:52:39.176Z,15.80
2018-11-12T20:55:08.519Z,15.80
2018-11-12T20:57:37.269Z,15.80
2018-11-12T21:00:09.907Z,15.80
2018-11-12T21:02:38.508Z,15.70
2018-11-12T21:05:07.665Z,15.70
2018-11-12T21:07:36.083Z,15.70
2018-11-12T21:10:04.392Z,15.70
2018-11-12T21:12:32.696Z,15.70
2018-11-12T21:15:00.987Z,15.70
2018-11-12T21:17:29.244Z,15.70
2018-11-12T21:19:57.563Z,15.80
2018-11-12T21:22:25.865Z,15.70
2018-11-12T21:24:54.187Z,15.70
2018-11-12T21:27:22.508Z,15.80
2018-11-12T21:29:50.802Z,15.80
2018-11-12T21:32:19.140Z,15.80
2018-11-12T21:34:47.500Z,15.80
2018-11-12T21:37:15.977Z,15.80
2018-11-12T21:39:44.178Z,15.80
2018-11-12T21:42:12.596Z,15.80
2018-11-12T21:44:41.002Z,15.80
2018-11-12T21:47:09.418Z,15.80
2018-11-12T21:49:37.833Z,15.80
2018-11-12T21:52:06.294Z,15.80
2018-11-12T21:54:34.693Z,15.80
2018-11-12T21:57:03.047Z,15.70
2018-11-12T21:59:31.356Z,15.70
2018-11-12T22:01:59.603Z,15.70
2018-11-12T22:04:28.756Z,15.70
2018-11-12T22:06:57.098Z,15.70
2018-11-12T22:09:25.371Z,15.70
2018-11-12T22:11:54.191Z,15.60
2018-11-12T22:14:22.578Z,15.60
2018-11-12T22:16:50.896Z,15.60
2018-11-12T22:19:19.559Z,15.60
2018-11-12T22:21:47.761Z,15.60
2018-11-12T22:24:16.058Z,15.60
2018-11-12T22:26:44.419Z,15.60
2018-11-12T22:29:12.751Z,15.60
2018-11-12T22:31:41.070Z,15.60
2018-11-12T22:34:10.086Z,15.60
2018-11-12T22:36:38.442Z,15.60
2018-11-12T22:39:08.041Z,15.60
2018-11-12T22:41:36.387Z,15.60
2018-11-12T22:44:04.650Z,15.60
2018-11-12T22:46:32.936Z,15.60
2018-11-12T22:49:01.194Z,15.60
2018-11-12T22:51:29.446Z,15.60
2018-11-12T22:53:57.741Z,15.60
2018-11-12T22:56:25.983Z,15.60
2018-11-12T22:58:54.308Z,15.50
2018-11-12T23:01:22.552Z,15.50
2018-11-12T23:03:50.813Z,15.50
2018-11-12T23:06:19.127Z,15.50
2018-11-12T23:08:47.488Z,15.50
2018-11-12T23:11:15.835Z,15.50
2018-11-12T23:13:44.159Z,15.50
2018-11-12T23:16:12.428Z,15.40
2018-11-12T23:18:40.684Z,15.40
2018-11-12T23:21:08.904Z,15.40
2018-11-12T23:23:37.163Z,15.40
2018-11-12T23:26:05.722Z,15.40
2018-11-12T23:28:33.995Z,15.40
2018-11-12T23:31:02.268Z,15.40
2018-11-12T23:33:30.503Z,15.40
2018-11-12T23:36:05.765Z,15.40
2018-11-12T23:38:34.122Z,15.40
2018-11-12T23:41:02.822Z,15.40
2018-11-12T23:43:31.510Z,15.40
2018-11-12T23:45:59.914Z,15.40
2018-11-12T23:48:28.367Z,15.40
2018-11-12T23:50:56.764Z,15.40
2018-11-12T23:53:25.186Z,15.40
2018-11-12T23:55:53.540Z,15.40
2018-11-12T23:58:21.918Z,15.40
